createdAt,value
2022-08-14T00:00:25.104Z,1002.56
2022-08-14T00:05:29.274Z,1002.62
2022-08-14T00:10:51.844Z,1002.51
2022-08-14T00:15:44.314Z,1002.44
2022-08-14T00:20:43.254Z,1002.45
2022-08-14T00:25:54.044Z,1002.29
2022-08-14T00:30:50.013Z,1002.26
2022-08-14T00:36:47.791Z,1002.22
2022-08-14T00:40:58.369Z,1002.24
2022-08-14T00:46:02.526Z,1002.16
2022-08-14T00:51:06.676Z,1002.11
2022-08-14T00:56:10.944Z,1002.11
2022-08-14T01:01:13.255Z,1002.09
2022-08-14T01:06:18.563Z,1002.01
2022-08-14T01:11:21.443Z,1001.88
2022-08-14T01:16:27.939Z,1001.80
2022-08-14T01:21:29.761Z,1001.66
2022-08-14T01:26:35.068Z,1001.67
2022-08-14T01:31:38.068Z,1001.69
2022-08-14T01:36:42.237Z,1001.61
2022-08-14T01:41:46.681Z,1001.60
2022-08-14T01:46:57.984Z,1001.65
2022-08-14T01:51:54.707Z,1001.53
2022-08-14T01:56:58.856Z,1001.38
2022-08-14T02:02:01.226Z,1001.33
2022-08-14T02:07:05.614Z,1001.17
2022-08-14T02:12:09.441Z,1001.16
2022-08-14T02:17:13.601Z,1001.03
2022-08-14T02:22:17.765Z,1000.88
2022-08-14T02:28:22.023Z,1000.86
2022-08-14T02:32:30.399Z,1000.88
2022-08-14T02:37:47.349Z,1000.83
2022-08-14T02:42:37.141Z,1000.88
2022-08-14T02:47:38.824Z,1000.90
2022-08-14T02:53:05.705Z,1000.77
2022-08-14T02:57:45.013Z,1000.91
2022-08-14T03:02:58.928Z,1000.87
2022-08-14T03:07:53.308Z,1000.87
2022-08-14T03:12:57.474Z,1000.89
2022-08-14T03:18:01.626Z,1000.95
2022-08-14T03:23:05.776Z,1000.92
2022-08-14T03:28:14.818Z,1000.81
2022-08-14T03:33:14.127Z,1000.85
2022-08-14T03:39:13.279Z,1000.70
2022-08-14T03:43:22.449Z,1000.78
2022-08-14T03:48:30.620Z,1000.71
2022-08-14T03:53:31.450Z,1000.71
2022-08-14T03:58:36.560Z,1000.80
2022-08-14T04:03:39.098Z,1000.76
2022-08-14T04:08:43.242Z,1000.70
2022-08-14T04:13:47.370Z,1000.63
2022-08-14T04:18:51.550Z,1000.75
2022-08-14T04:23:57.339Z,1000.69
2022-08-14T04:29:08.671Z,1000.60
2022-08-14T04:34:05.121Z,1000.57
2022-08-14T04:39:06.302Z,1000.63
2022-08-14T04:44:08.558Z,1000.57
2022-08-14T04:49:14.974Z,1000.62
2022-08-14T04:54:17.201Z,1000.62
2022-08-14T04:59:19.136Z,1000.68
2022-08-14T05:04:21.490Z,1000.68
2022-08-14T05:09:29.292Z,1000.76
2022-08-14T05:14:45.524Z,1000.68
2022-08-14T05:19:32.652Z,1000.67
2022-08-14T05:24:36.179Z,1000.62
2022-08-14T05:29:40.352Z,1000.66
2022-08-14T05:34:45.596Z,1000.64
2022-08-14T05:39:48.812Z,1000.69
2022-08-14T05:44:54.759Z,1000.61
2022-08-14T05:49:56.970Z,1000.61
2022-08-14T05:55:01.161Z,1000.52
2022-08-14T06:00:05.302Z,1000.62
2022-08-14T06:05:09.438Z,1000.59
2022-08-14T06:10:13.608Z,1000.54
2022-08-14T06:15:17.806Z,1000.44
2022-08-14T06:20:22.183Z,1000.39
2022-08-14T06:25:26.137Z,1000.39
2022-08-14T06:30:46.064Z,1000.39
2022-08-14T06:35:34.396Z,1000.41
2022-08-14T06:40:40.305Z,1000.47
2022-08-14T06:45:42.721Z,1000.41
2022-08-14T06:50:46.884Z,1000.38
2022-08-14T06:55:57.891Z,1000.34
2022-08-14T07:00:53.463Z,1000.34
2022-08-14T07:05:58.010Z,1000.41
2022-08-14T07:11:01.684Z,1000.36
2022-08-14T07:16:05.939Z,1000.35
2022-08-14T07:21:09.941Z,1000.28
2022-08-14T07:26:14.131Z,1000.26
2022-08-14T07:31:18.308Z,1000.13
2022-08-14T07:36:27.090Z,1000.16
2022-08-14T07:41:31.200Z,1000.06
2022-08-14T07:46:30.965Z,1000.02
2022-08-14T07:51:37.138Z,1000.06
2022-08-14T07:56:48.193Z,999.94
2022-08-14T08:01:51.122Z,999.80
2022-08-14T08:06:47.403Z,999.86
2022-08-14T08:11:54.205Z,999.79
2022-08-14T08:16:55.699Z,999.74
2022-08-14T08:21:59.871Z,999.64
2022-08-14T08:27:04.053Z,999.70
2022-08-14T08:32:08.197Z,999.70
2022-08-14T08:37:12.323Z,999.57
2022-08-14T08:42:16.498Z,999.58
2022-08-14T08:47:18.776Z,999.49
2022-08-14T08:52:25.488Z,999.53
2022-08-14T08:57:27.079Z,999.54
2022-08-14T09:02:31.255Z,999.62
2022-08-14T09:07:35.424Z,999.57
2022-08-14T09:12:39.565Z,999.68
2022-08-14T09:17:43.767Z,999.55
2022-08-14T09:22:48.746Z,999.47
2022-08-14T09:27:52.022Z,999.42
2022-08-14T09:32:59.693Z,999.39
2022-08-14T09:38:00.437Z,999.49
2022-08-14T09:43:04.503Z,999.34
2022-08-14T09:48:08.668Z,999.32
2022-08-14T09:53:18.169Z,999.30
2022-08-14T09:58:19.921Z,999.14
2022-08-14T10:03:21.147Z,999.04
2022-08-14T10:08:26.847Z,998.93
2022-08-14T10:13:43.161Z,998.87
2022-08-14T10:18:33.609Z,998.78
2022-08-14T10:23:37.768Z,998.69
2022-08-14T10:29:18.745Z,998.58
2022-08-14T10:33:47.971Z,998.51
2022-08-14T10:38:51.836Z,998.59
2022-08-14T10:43:50.631Z,998.38
2022-08-14T10:48:54.792Z,998.52
2022-08-14T10:53:57.099Z,998.38
2022-08-14T10:59:01.255Z,998.38
2022-08-14T11:04:03.576Z,998.29
2022-08-14T11:09:07.686Z,998.23
2022-08-14T11:14:11.850Z,998.17
2022-08-14T11:19:15.971Z,998.17
2022-08-14T11:24:55.323Z,998.11
2022-08-14T11:29:24.668Z,998.00
2022-08-14T11:34:29.923Z,997.95
2022-08-14T11:39:34.570Z,997.94
2022-08-14T11:44:45.342Z,997.95
2022-08-14T11:49:40.959Z,997.79
2022-08-14T11:54:45.085Z,997.77
2022-08-14T11:59:49.276Z,997.75
2022-08-14T12:04:53.473Z,997.83
2022-08-14T12:09:57.600Z,997.70
2022-08-14T12:15:01.765Z,997.72
2022-08-14T12:20:05.978Z,997.75
2022-08-14T12:25:11.247Z,997.62
2022-08-14T12:30:14.197Z,997.57
2022-08-14T12:35:18.385Z,997.35
2022-08-14T12:40:22.552Z,997.41
2022-08-14T12:45:26.727Z,997.42
2022-08-14T12:50:28.979Z,997.34
2022-08-14T12:56:18.281Z,997.11
2022-08-14T13:00:35.484Z,996.89
2022-08-14T13:05:39.746Z,996.88
2022-08-14T13:10:47.642Z,996.88
2022-08-14T13:15:45.966Z,996.67
2022-08-14T13:20:55.433Z,996.60
2022-08-14T13:25:56.450Z,996.52
2022-08-14T13:30:58.452Z,996.50
2022-08-14T13:36:03.326Z,996.41
2022-08-14T13:41:06.772Z,996.26
2022-08-14T13:46:11.461Z,996.28
2022-08-14T13:51:15.103Z,996.16
2022-08-14T13:56:35.981Z,996.10
2022-08-14T14:01:23.408Z,996.00
2022-08-14T14:06:27.559Z,995.92
2022-08-14T14:11:31.735Z,995.93
2022-08-14T14:16:35.870Z,995.90
2022-08-14T14:21:40.363Z,995.78
2022-08-14T14:26:44.227Z,995.69
2022-08-14T14:31:48.355Z,995.67
2022-08-14T14:36:55.417Z,995.58
2022-08-14T14:41:56.714Z,995.60
2022-08-14T14:47:00.833Z,995.58
2022-08-14T14:52:05.007Z,995.49
2022-08-14T14:57:09.326Z,995.55
2022-08-14T15:02:11.645Z,995.55
2022-08-14T15:07:16.374Z,995.60
2022-08-14T15:12:55.150Z,995.54
2022-08-14T15:17:28.584Z,995.62
2022-08-14T15:22:26.186Z,995.55
2022-08-14T15:27:30.340Z,995.50
2022-08-14T15:32:34.492Z,995.47
2022-08-14T15:37:42.279Z,995.40
2022-08-14T15:42:42.813Z,995.32
2022-08-14T15:47:46.961Z,995.30
2022-08-14T15:52:51.590Z,995.24
2022-08-14T15:58:03.745Z,995.23
2022-08-14T16:02:59.480Z,995.18
2022-08-14T16:08:03.645Z,995.03
2022-08-14T16:13:07.766Z,995.03
2022-08-14T16:18:18.272Z,995.02
2022-08-14T16:23:16.437Z,994.86
2022-08-14T16:28:27.651Z,994.80
2022-08-14T16:33:56.667Z,994.80
2022-08-14T16:38:44.866Z,994.81
2022-08-14T16:43:32.695Z,994.77
2022-08-14T16:48:57.488Z,994.71
2022-08-14T16:53:41.040Z,994.71
2022-08-14T16:58:43.296Z,994.72
2022-08-14T17:03:47.485Z,994.66
2022-08-14T17:08:49.720Z,994.56
2022-08-14T17:14:00.715Z,994.49
2022-08-14T17:19:00.834Z,994.52
2022-08-14T17:24:56.697Z,994.49
2022-08-14T17:29:06.404Z,994.45
2022-08-14T17:34:10.544Z,994.44
2022-08-14T17:39:14.705Z,994.42
2022-08-14T17:44:21.381Z,994.39
2022-08-14T17:49:23.014Z,994.47
2022-08-14T17:54:34.783Z,994.51
2022-08-14T17:59:31.357Z,994.50
2022-08-14T18:04:35.514Z,994.46
2022-08-14T18:14:48.783Z,994.49
2022-08-14T18:19:47.984Z,994.47
2022-08-14T18:24:52.128Z,994.39
2022-08-14T18:29:56.292Z,994.40
2022-08-14T18:35:00.436Z,994.41
2022-08-14T18:40:04.838Z,994.53
2022-08-14T18:45:12.802Z,994.46
2022-08-14T18:50:27.417Z,994.42
2022-08-14T18:55:17.350Z,994.51
2022-08-14T19:00:19.355Z,994.44
2022-08-14T19:05:23.531Z,994.46
2022-08-14T19:10:27.698Z,994.45
2022-08-14T19:15:31.834Z,994.47
2022-08-14T19:20:38.286Z,994.55
2022-08-14T19:25:40.150Z,994.56
2022-08-14T19:30:48.704Z,994.53
2022-08-14T19:35:55.669Z,994.53
2022-08-14T19:40:52.637Z,994.51
2022-08-14T19:45:56.790Z,994.44
2022-08-14T19:51:00.953Z,994.45
2022-08-14T19:56:05.127Z,994.45
2022-08-14T20:01:09.319Z,994.55
2022-08-14T20:06:13.462Z,994.47
2022-08-14T20:12:02.327Z,994.51
2022-08-14T20:16:31.835Z,994.50
2022-08-14T20:21:34.404Z,994.50
2022-08-14T20:26:31.149Z,994.44
2022-08-14T20:31:36.663Z,994.51
2022-08-14T20:36:38.383Z,994.51
2022-08-14T20:41:43.572Z,994.41
2022-08-14T20:46:44.831Z,994.45
2022-08-14T20:51:58.377Z,994.50
2022-08-14T20:56:51.259Z,994.45
2022-08-14T21:01:55.642Z,994.40
2022-08-14T21:07:25.443Z,994.46
2022-08-14T21:12:02.935Z,994.40
2022-08-14T21:17:05.969Z,994.43
2022-08-14T21:22:10.144Z,994.34
2022-08-14T21:27:20.392Z,994.35
2022-08-14T21:32:20.551Z,994.24
2022-08-14T21:37:22.596Z,994.28
2022-08-14T21:42:28.763Z,994.22
2022-08-14T21:47:32.926Z,994.16
2022-08-14T21:52:52.167Z,994.19
2022-08-14T21:57:56.701Z,994.26
2022-08-14T22:02:43.468Z,994.19
2022-08-14T22:07:47.686Z,994.16
2022-08-14T22:13:00.977Z,994.06
2022-08-14T22:17:56.105Z,993.99
2022-08-14T22:23:00.056Z,994.04
2022-08-14T22:28:04.269Z,994.02
2022-08-14T22:33:10.150Z,993.89
2022-08-14T22:38:35.813Z,993.91
2022-08-14T22:43:16.711Z,993.84
2022-08-14T22:48:20.842Z,993.89
2022-08-14T22:53:29.366Z,993.83
2022-08-14T22:58:30.218Z,993.72
2022-08-14T23:03:34.906Z,993.76
2022-08-14T23:08:59.844Z,993.74
2022-08-14T23:13:39.764Z,993.78
2022-08-14T23:18:43.906Z,993.71
2022-08-14T23:23:48.066Z,993.71
2022-08-14T23:28:56.888Z,993.66
2022-08-14T23:33:56.403Z,993.64
2022-08-14T23:39:00.527Z,993.55
2022-08-14T23:44:04.716Z,993.50
2022-08-14T23:49:08.845Z,993.50
2022-08-14T23:54:48.517Z,993.49
2022-08-14T23:59:17.186Z,993.39
